Nearby METAR Reports

 

KDWH - Houston/Dw Hooks, Texas, USA
Distance from station: WNW 3mi, 6km
Updated: 09/26/2020 9:10am
Mist, Partly cloudy
Mist, Partly cloudy
 Wind from calm
Wind: Calm
Temperature: 70°F , 21°C
Dew Point: 66°F , 19°C
Humidity: 88%
Barometer: 29.99 inHg , 1015.6 hPa
Summary: Mist
Clouds: Partly cloudy
Visibility: 2 1/2 miles , 4 km
Cloud details: Partly cloudy 200 ft
2020/09/26 14:10 KDWH 261410Z 00000KT 2 1/2SM BR SCT002 21/19 A2999 RMK AO2 T02110194
KIAH - Houston/Intnl, Texas, USA
Distance from station: ESE 9mi, 14km
Updated: 09/26/2020 8:53am
Few Clouds
Few Clouds
 Wind from calm
Wind: Calm
Temperature: 72°F , 22°C
Dew Point: 70°F , 21°C
Humidity: 94%
Barometer: 29.99 inHg , 1015.6 hPa
Clouds: Few Clouds
Visibility: 8 miles , 13 km
Cloud details: Few Clouds 2500 ft
2020/09/26 13:53 KIAH 261353Z 00000KT 8SM FEW025 22/21 A2999 RMK AO2 SLP154 T02170211 $
 
KCXO - Conroe, Texas, USA
Distance from station: NNE 21mi, 34km
Updated: 09/26/2020 9:06am
Fog, Overcast
Fog, Overcast
 Wind from calm
Wind: Calm
Barometer: 30.01 inHg , 1016.3 hPa
Summary: Fog
Clouds: Overcast
Visibility: 1/2 mile , 0.8 km
Cloud details: Overcast 200 ft
2020/09/26 14:06 KCXO 261406Z 00000KT 1/2SM FG OVC002 A3001 RMK AO2 $
KMCJ - Houston/Univ, Texas, USA
Distance from station: SSE 24mi, 39km
Updated: 09/26/2020 9:15am
Clear
Clear
 Wind from ESE
Wind: ESE 5 mph , 7 km/h
Temperature: 73°F , 23°C
Dew Point: 68°F , 20°C
Humidity: 83%
Barometer: 29.98 inHg , 1015.2 hPa
Clouds: Clear
Visibility: 10 miles , 16 km
2020/09/26 14:15 KMCJ 261415Z AUTO 12004KT 10SM CLR 23/20 A2998 RMK A01
 
KTME - Houston Exec, Texas, USA
Distance from station: SW 30mi, 48km
Updated: 09/26/2020 9:15am
Clear
Clear
 Wind from calm
Wind: Calm
Temperature: 72°F , 22°C
Dew Point: 72°F , 22°C
Humidity: 100%
Barometer: 30.00 inHg , 1015.9 hPa
Clouds: Clear
Visibility: 7 miles , 11 km
2020/09/26 14:15 KTME 261415Z AUTO 00000KT 7SM CLR 22/22 A3000 RMK AO2
KHOU - Houston/Hobby, Texas, USA
Distance from station: SSE 32mi, 51km
Updated: 09/26/2020 8:53am
Few Clouds
Few Clouds
 Wind from E
Wind: E 3 mph , 6 km/h
Temperature: 75°F , 24°C
Dew Point: 70°F , 21°C
Humidity: 83%
Barometer: 29.98 inHg , 1015.2 hPa
Clouds: Few Clouds
Visibility: 7 miles , 11 km
Cloud details: Few Clouds 1300 ft
Few Clouds 8000 ft
2020/09/26 13:53 KHOU 261353Z 09003KT 7SM FEW013 FEW080 24/21 A2998 RMK AO2 SLP156 T02390211
 
KSGR - Houston/Sugar La, Texas, USA
Distance from station: SSW 32mi, 51km
Updated: 09/26/2020 8:53am
Clear
Clear
 Wind from calm
Wind: Calm
Temperature: 72°F , 22°C
Dew Point: 70°F , 21°C
Humidity: 94%
Barometer: 29.98 inHg , 1015.2 hPa
Clouds: Clear
Visibility: 10 miles , 16 km
2020/09/26 13:53 KSGR 261353Z 00000KT 10SM CLR 22/21 A2998 RMK AO2 SLP153 T02220211
K6R3 - Cleveland Muni, Texas, USA
Distance from station: NE 36mi, 58km
Updated: 09/26/2020 9:15am
Mist, Overcast
Mist, Overcast
 Wind from calm
Wind: Calm
Temperature: 68°F , 20°C
Dew Point: 68°F , 20°C
Humidity: 100%
Barometer: 30.01 inHg , 1016.3 hPa
Summary: Mist
Clouds: Overcast
Visibility: 1 mile , 2 km
Cloud details: Overcast 200 ft
2020/09/26 14:15 K6R3 261415Z AUTO 00000KT 1SM BR OVC002 20/20 A3001 RMK AO2 T02010201
 
KAXH - Houston/Southwst, Texas, USA
Distance from station: S 37mi, 60km
Updated: 09/26/2020 9:15am
Clear
Clear
 Wind from calm
Wind: Calm
Temperature: 73°F , 23°C
Dew Point: 72°F , 22°C
Humidity: 94%
Barometer: 29.99 inHg , 1015.6 hPa
Clouds: Clear
Visibility: 7 miles , 11 km
2020/09/26 14:15 KAXH 261415Z AUTO 00000KT 7SM CLR 23/22 A2999 RMK AO2 T02290221
KEFD - Houston/Ellingto, Texas, USA
Distance from station: SSE 37mi, 60km
Updated: 09/26/2020 8:50am
Mist, Few clouds
Mist, Few clouds
 Wind from NE
Wind: NE 5 mph , 7 km/h
Temperature: 73°F , 23°C
Dew Point: 70°F , 21°C
Humidity: 89%
Barometer: 29.98 inHg , 1015.2 hPa
Summary: Mist
Clouds: Few Clouds
Visibility: 5 miles , 8 km
Cloud details: Few Clouds 2500 ft
2020/09/26 13:50 KEFD 261350Z 05004KT 5SM BR FEW025 23/21 A2998
 
KLVJ - Houston, Texas, USA
Distance from station: SSE 40mi, 64km
Updated: 09/26/2020 8:53am
Clear
Clear
 Wind from ENE
Wind: ENE 3 mph , 6 km/h
Temperature: 73°F , 23°C
Dew Point: 70°F , 21°C
Humidity: 89%
Barometer: 29.99 inHg , 1015.6 hPa
Clouds: Clear
Visibility: 7 miles , 11 km
2020/09/26 13:53 KLVJ 261353Z AUTO 06003KT 7SM CLR 23/21 A2999 RMK AO2 SLP156 T02330206
KUTS - Huntsville, Texas, USA
Distance from station: N 48mi, 78km
Updated: 09/26/2020 9:20am
Mist, Overcast
Mist, Overcast
 Wind from S
Wind: S 3 mph , 6 km/h
Temperature: 70°F , 21°C
Dew Point: 66°F , 19°C
Humidity: 88%
Barometer: 30.00 inHg , 1015.9 hPa
Summary: Mist
Clouds: Overcast
Visibility: 4 miles , 6 km
Cloud details: Overcast 200 ft
2020/09/26 14:20 KUTS 261420Z AUTO 19003KT 4SM BR OVC002 21/19 A3000 RMK AO2 T02060189